This is the latest recevied weather packets stored in our database for station/object KD8UYA. If no packets are shown the sender has not sent any weather packets the latest 10 day(s).
| Time | Temp. | Humidity | Pressure | Rain* | Wind** | Luminosity | Snow |
|---|---|---|---|---|---|---|---|
| 1777602654 | 5.56° C | 85% | 1013.5 hPa | 0 mm | - | - | - |
| 1777587343 | 10° C | 57% | 1012.9 hPa | 0 mm | - | - | - |
| 1777583742 | 9.44° C | 61% | 1012.9 hPa | 0 mm | - | - | - |
| 1777581936 | 9.44° C | 66% | 1012.9 hPa | 0 mm | - | - | - |
| 1777581037 | 9.44° C | 65% | 1013 hPa | 0 mm | - | - | - |
| 1777580137 | 9.44° C | 64% | 1012.9 hPa | 0 mm | - | - | - |
| 1777579233 | 9.44° C | 67% | 1012.9 hPa | 0 mm | - | - | - |
| 1777572018 | 5.56° C | 89% | 1013.4 hPa | 0.25 mm | - | - | - |
| 1777570216 | 6.67° C | 85% | 1013.3 hPa | 0 mm | - | - | - |
| 1777569315 | 6.67° C | 86% | 1013.5 hPa | 0 mm | - | - | - |
| 1777565709 | 7.22° C | 81% | 1013.2 hPa | 0 mm | - | - | - |
| 1777563908 | 6.67° C | 82% | 1012.9 hPa | 0 mm | - | - | - |
| 1777563007 | 6.67° C | 84% | 1013.1 hPa | 0 mm | - | - | - |
| 1777561203 | 6.67° C | 83% | 1012.8 hPa | 0 mm | - | - | - |
| 1777559460 | 6.11° C | 84% | 1012.4 hPa | 0 mm | - | - | - |
| 1777558558 | 6.11° C | 87% | 1012.4 hPa | 0 mm | - | - | - |
| 1777557660 | 5.56° C | 88% | 1012.3 hPa | 0 mm | - | - | - |
| 1777556754 | 5.56° C | 89% | 1012 hPa | 0 mm | - | - | - |
| 1777555852 | 5.56° C | 91% | 1011.8 hPa | 0 mm | - | - | - |
| 1777554951 | 5.56° C | 91% | 1011.7 hPa | 0 mm | - | - | - |
| 1777554050 | 5.56° C | 92% | 1011.5 hPa | 0 mm | - | - | - |
| 1777553148 | 5° C | 93% | 1011.4 hPa | 0 mm | - | - | - |
| 1777552249 | 4.44° C | 94% | 1011.3 hPa | 0 mm | - | - | - |
| 1777551350 | 4.44° C | 95% | 1011.5 hPa | 0 mm | - | - | - |
| 1777549543 | 3.89° C | 96% | 1011.3 hPa | 0 mm | - | - | - |
* Rain latest hour (hover to see other rain measurements)
** Current wind speed in m/s (hover to see current wind gust speed)